createdAt,value
2022-11-12T00:00:19.846Z,0
2022-11-12T00:05:19.810Z,0
2022-11-12T00:10:19.808Z,0
2022-11-12T00:15:19.779Z,0
2022-11-12T00:20:19.856Z,0
2022-11-12T00:25:19.799Z,0
2022-11-12T00:30:20.561Z,0
2022-11-12T00:35:19.803Z,0
2022-11-12T00:40:19.819Z,0
2022-11-12T00:45:19.825Z,0
2022-11-12T00:50:19.821Z,0
2022-11-12T00:55:19.805Z,0
2022-11-12T01:00:16.749Z,0
2022-11-12T01:05:20.527Z,0
2022-11-12T01:10:19.845Z,0
2022-11-12T01:15:19.831Z,0
2022-11-12T01:20:19.821Z,0
2022-11-12T01:25:19.919Z,0
2022-11-12T01:30:19.830Z,0
2022-11-12T01:35:19.840Z,0
2022-11-12T01:40:17.440Z,0
2022-11-12T01:45:19.827Z,0
2022-11-12T01:50:19.827Z,0
2022-11-12T01:55:19.854Z,0
2022-11-12T02:00:19.847Z,0
2022-11-12T02:05:16.884Z,0
2022-11-12T02:10:16.909Z,0
2022-11-12T02:15:17.467Z,0
2022-11-12T02:20:16.901Z,0
2022-11-12T02:25:16.897Z,0
2022-11-12T02:30:16.889Z,0
2022-11-12T02:35:16.877Z,0
2022-11-12T02:40:16.890Z,0
2022-11-12T02:45:16.886Z,0
2022-11-12T02:50:17.701Z,0
2022-11-12T02:55:16.895Z,0
2022-11-12T03:00:16.913Z,0
2022-11-12T03:05:16.910Z,0
2022-11-12T03:10:16.927Z,0
2022-11-12T03:15:20.001Z,0
2022-11-12T03:20:20.484Z,0
2022-11-12T03:25:19.880Z,0
2022-11-12T03:30:19.906Z,0
2022-11-12T03:35:19.884Z,0
2022-11-12T03:40:19.898Z,0
2022-11-12T03:45:19.890Z,0
2022-11-12T03:50:19.913Z,0
2022-11-12T03:55:20.523Z,0
2022-11-12T04:00:19.955Z,0
2022-11-12T04:05:16.966Z,0
2022-11-12T04:10:16.948Z,0
2022-11-12T04:15:19.945Z,0
2022-11-12T04:20:16.950Z,0
2022-11-12T04:25:16.950Z,0
2022-11-12T04:30:20.861Z,0
2022-11-12T04:35:19.949Z,0
2022-11-12T04:40:16.986Z,0
2022-11-12T04:45:16.980Z,0
2022-11-12T04:50:19.932Z,0
2022-11-12T04:55:19.935Z,0
2022-11-12T05:00:16.226Z,0
2022-11-12T05:05:16.589Z,0
2022-11-12T05:10:16.206Z,0
2022-11-12T05:15:16.254Z,0
2022-11-12T05:20:16.254Z,0
2022-11-12T05:25:19.218Z,0
2022-11-12T05:30:19.222Z,0
2022-11-12T05:35:16.251Z,0
2022-11-12T05:40:19.932Z,0
2022-11-12T05:45:19.229Z,0
2022-11-12T05:50:19.206Z,0
2022-11-12T05:55:19.232Z,0
2022-11-12T06:00:19.209Z,0
2022-11-12T06:05:19.172Z,0
2022-11-12T06:10:20.703Z,0
2022-11-12T06:15:19.987Z,0
2022-11-12T06:20:19.200Z,0
2022-11-12T06:25:16.234Z,0
2022-11-12T06:30:24.464Z,0
2022-11-12T06:35:19.337Z,0
2022-11-12T06:40:19.222Z,0
2022-11-12T06:45:19.207Z,0
2022-11-12T06:50:19.936Z,0
2022-11-12T06:55:16.251Z,0
2022-11-12T07:00:16.274Z,0
2022-11-12T07:05:19.224Z,0
2022-11-12T07:10:16.272Z,0
2022-11-12T07:15:16.286Z,0
2022-11-12T07:20:16.335Z,0
2022-11-12T07:25:19.990Z,0
2022-11-12T07:30:19.264Z,0
2022-11-12T07:35:19.263Z,0
2022-11-12T07:40:19.292Z,0
2022-11-12T07:45:19.255Z,0
2022-11-12T07:50:19.270Z,0
2022-11-12T07:55:19.248Z,0
2022-11-12T08:00:19.995Z,0
2022-11-12T08:05:21.553Z,0
2022-11-12T08:10:19.259Z,0
2022-11-12T08:15:16.271Z,0
2022-11-12T08:20:19.273Z,0
2022-11-12T08:25:16.293Z,0
2022-11-12T08:30:16.311Z,0
2022-11-12T08:35:17.077Z,0
2022-11-12T08:40:16.353Z,0
2022-11-12T08:45:19.310Z,0
2022-11-12T08:50:19.278Z,0
2022-11-12T08:55:19.290Z,0
2022-11-12T09:00:19.301Z,0
2022-11-12T09:05:20.013Z,0
2022-11-12T09:10:19.275Z,0
2022-11-12T09:15:54.719Z,0
2022-11-12T09:20:19.303Z,0
2022-11-12T09:25:19.295Z,0
2022-11-12T09:30:19.313Z,0
2022-11-12T09:35:19.302Z,0
2022-11-12T09:40:16.821Z,0
2022-11-12T09:45:16.343Z,0
2022-11-12T09:50:16.359Z,0
2022-11-12T09:55:16.343Z,0
2022-11-12T10:00:16.359Z,0
2022-11-12T10:05:19.371Z,0
2022-11-12T10:10:20.179Z,0
2022-11-12T10:15:19.327Z,0
2022-11-12T10:20:16.372Z,0
2022-11-12T10:25:19.312Z,0
2022-11-12T10:30:19.348Z,0
2022-11-12T10:35:19.354Z,0
2022-11-12T10:40:16.349Z,0
2022-11-12T10:45:17.184Z,0
2022-11-12T10:50:16.381Z,0
2022-11-12T10:55:16.362Z,0
2022-11-12T11:00:16.518Z,0
2022-11-12T11:05:19.387Z,0
2022-11-12T11:10:19.348Z,0
2022-11-12T11:15:20.127Z,0
2022-11-12T11:20:19.371Z,0
2022-11-12T11:25:19.338Z,0
2022-11-12T11:30:19.417Z,0
2022-11-12T11:35:19.332Z,0
2022-11-12T11:40:19.358Z,3
2022-11-12T11:45:19.375Z,13
2022-11-12T11:50:20.024Z,21
2022-11-12T11:55:16.426Z,18
2022-11-12T12:00:16.456Z,7
2022-11-12T12:05:16.391Z,1
2022-11-12T12:10:16.397Z,1
2022-11-12T12:15:19.378Z,9
2022-11-12T12:20:19.353Z,9
2022-11-12T12:25:17.199Z,4
2022-11-12T12:30:19.477Z,0
2022-11-12T12:35:19.439Z,2
2022-11-12T12:40:19.388Z,4
2022-11-12T12:45:19.403Z,12
2022-11-12T12:50:19.376Z,18
2022-11-12T12:55:16.287Z,24
2022-11-12T13:00:20.143Z,20
2022-11-12T13:05:19.414Z,26
2022-11-12T13:10:16.438Z,29
2022-11-12T13:15:16.476Z,26
2022-11-12T13:20:16.428Z,24
2022-11-12T13:25:16.412Z,22
2022-11-12T13:30:19.397Z,19
2022-11-12T13:35:16.897Z,22
2022-11-12T13:40:19.457Z,28
2022-11-12T13:45:19.457Z,28
2022-11-12T13:50:19.445Z,32
2022-11-12T13:55:19.412Z,45
2022-11-12T14:00:19.423Z,51
2022-11-12T14:05:20.154Z,122
2022-11-12T14:10:19.439Z,108
2022-11-12T14:15:16.435Z,83
2022-11-12T14:20:16.484Z,72
2022-11-12T14:25:16.431Z,93
2022-11-12T14:30:19.422Z,94
2022-11-12T14:35:19.442Z,110
2022-11-12T14:40:20.183Z,64
2022-11-12T14:45:19.393Z,63
2022-11-12T14:50:19.473Z,29
2022-11-12T14:55:20.403Z,67
2022-11-12T15:00:19.450Z,308
2022-11-12T15:05:19.473Z,339
2022-11-12T15:10:19.425Z,418
2022-11-12T15:15:17.082Z,450
2022-11-12T15:20:16.515Z,119
2022-11-12T15:25:16.565Z,246
2022-11-12T15:30:16.501Z,393
2022-11-12T15:35:19.511Z,446
2022-11-12T15:40:19.462Z,456
2022-11-12T15:45:20.219Z,457
2022-11-12T15:50:19.477Z,445
2022-11-12T15:55:19.467Z,475
2022-11-12T16:00:19.480Z,479
2022-11-12T16:05:19.473Z,508
2022-11-12T16:10:19.486Z,612
2022-11-12T16:15:16.504Z,142
2022-11-12T16:20:17.119Z,161
2022-11-12T16:25:16.484Z,213
2022-11-12T16:30:19.475Z,172
2022-11-12T16:35:19.511Z,134
2022-11-12T16:40:19.466Z,142
2022-11-12T16:45:19.499Z,239
2022-11-12T16:50:16.470Z,164
2022-11-12T16:55:20.265Z,253
2022-11-12T17:00:19.504Z,174
2022-11-12T17:05:19.486Z,196
2022-11-12T17:10:19.495Z,171
2022-11-12T17:15:19.453Z,153
2022-11-12T17:20:19.532Z,440
2022-11-12T17:25:16.496Z,369
2022-11-12T17:30:17.053Z,127
2022-11-12T17:35:16.562Z,325
2022-11-12T17:40:19.526Z,123
2022-11-12T17:45:19.520Z,152
2022-11-12T17:50:19.576Z,139
2022-11-12T17:55:19.509Z,142
2022-11-12T18:00:20.101Z,204
2022-11-12T18:05:19.525Z,119
2022-11-12T18:10:19.556Z,38
2022-11-12T18:15:16.582Z,425
2022-11-12T18:20:16.560Z,243
2022-11-12T18:25:19.683Z,138
2022-11-12T18:30:19.880Z,102
2022-11-12T18:35:20.245Z,54
2022-11-12T18:40:19.520Z,118
2022-11-12T18:45:19.525Z,133
2022-11-12T18:50:19.549Z,117
2022-11-12T18:55:16.583Z,132
2022-11-12T19:00:16.579Z,60
2022-11-12T19:05:19.640Z,84
2022-11-12T19:10:20.311Z,63
2022-11-12T19:15:24.072Z,79
2022-11-12T19:20:19.567Z,62
2022-11-12T19:25:19.550Z,57
2022-11-12T19:30:19.563Z,59
2022-11-12T19:35:19.605Z,51
2022-11-12T19:40:19.549Z,48
2022-11-12T19:45:20.256Z,55
2022-11-12T19:50:18.802Z,32
2022-11-12T19:55:16.618Z,36
2022-11-12T20:00:16.609Z,30
2022-11-12T20:05:19.614Z,22
2022-11-12T20:10:19.543Z,36
2022-11-12T20:15:19.576Z,43
2022-11-12T20:20:17.215Z,50
2022-11-12T20:25:16.645Z,37
2022-11-12T20:30:19.573Z,65
2022-11-12T20:35:22.377Z,44
2022-11-12T20:40:19.582Z,26
2022-11-12T20:45:16.478Z,37
2022-11-12T20:50:20.342Z,83
2022-11-12T20:55:16.613Z,54
2022-11-12T21:00:21.317Z,38
2022-11-12T21:05:19.657Z,17
2022-11-12T21:10:19.624Z,5
2022-11-12T21:15:19.612Z,4
2022-11-12T21:20:16.486Z,0
2022-11-12T21:25:17.241Z,0
2022-11-12T21:30:16.624Z,0
2022-11-12T21:35:16.663Z,0
2022-11-12T21:40:16.651Z,0
2022-11-12T21:45:19.668Z,0
2022-11-12T21:50:19.636Z,0
2022-11-12T21:55:20.203Z,0
2022-11-12T22:00:41.087Z,0
2022-11-12T22:05:16.650Z,0
2022-11-12T22:10:19.926Z,0
2022-11-12T22:15:24.107Z,0
2022-11-12T22:20:19.655Z,0
2022-11-12T22:25:19.613Z,0
2022-11-12T22:30:20.317Z,0
2022-11-12T22:35:19.614Z,0
2022-11-12T22:40:16.524Z,0
2022-11-12T22:45:19.670Z,0
2022-11-12T22:50:16.676Z,0
2022-11-12T22:55:19.646Z,0
2022-11-12T23:00:19.673Z,0
2022-11-12T23:05:20.446Z,0
2022-11-12T23:10:19.649Z,0
2022-11-12T23:15:19.625Z,0
2022-11-12T23:20:19.686Z,0
2022-11-12T23:25:16.671Z,0
2022-11-12T23:30:16.705Z,0
2022-11-12T23:35:16.695Z,0
2022-11-12T23:40:20.406Z,0
2022-11-12T23:45:19.669Z,0
2022-11-12T23:50:19.702Z,0
2022-11-12T23:55:19.697Z,0
